Ander, Texas
Current Conditions -  °F | °C
As of 7:55 AM on Friday 24 Oct 2014 (Local Time) from KBEA Reporting Station
Clear Clear  
Wind Chill: 62°   Ceiling: Unl
Heat Index: 62°   Visibility: 10mi
Dew Point: 61°   Wind: 5mph
Humidity: 98%   Direction: 10°N
Pressure: 30.13"   Gusts: NA
Location:  28.6563°N, 97.4287°W
Report Text: KBEA 241255Z AUTO 01004KT 10SM CLR 16/16 A3013 RMK AO2 T01640161
Loading
Personal Weather Stations






























Interactive Weather Map New forecast layout! Learn more

10-Day Weather Forecast

Advertisements
Track Severe Weather on mobile